Monroe City, Missouri
Current Conditions -  °F | °C
As of 10:55 AM on Tuesday 27 Jan 2015 (Local Time) from KHAE Reporting Station
Clear Clear  
Wind Chill:   Ceiling: Unl
Heat Index:   Visibility: 10mi
Dew Point: -1°   Wind: 5mph
Humidity: 61%   Direction: 10°N
Pressure: 30.17"   Gusts: NA
Location:  39.65°N, 91.73°W
Report Text: KHAE 271655Z AUTO 01004KT 10SM CLR 06/M01 A3017 RMK AO2
Loading
Personal Weather Stations






























Interactive Weather Map New forecast layout! Learn more

10-Day Weather Forecast

Advertisements
Track Severe Weather on mobile